Time;durP1;ratioP1;P1;durP2;ratioP2;P2;SDS_P1;SDS_P2;PMS_P1;PMS_P2;Temp;Humidity;BMP_temperature;BMP_pressure;BME280_temperature;BME280_humidity;BME280_pressure;Samples;Min_cycle;Max_cycle;Signal;HPM_P1;HPM_P2
2023/06/28 00:02:25;;;;;;;9.63;6.60;;;21.10;99.60;;;21.61;63.72;94762.44;4985416;28;20458;-64
2023/06/28 00:04:54;;;;;;;7.50;6.63;;;21.10;99.70;;;21.59;63.72;94758.34;4983793;28;20490;-56
2023/06/28 00:07:23;;;;;;;7.90;7.13;;;21.10;99.80;;;21.57;63.96;94760.41;4984821;28;20512;-62
2023/06/28 00:09:50;;;;;;;11.27;7.00;;;21.10;99.80;;;21.54;63.92;94761.63;4980393;28;20569;-62
2023/06/28 00:12:19;;;;;;;7.40;6.53;;;21.10;99.80;;;21.50;63.84;94749.69;4984980;28;20846;-59
2023/06/28 00:14:46;;;;;;;7.50;6.83;;;21.00;99.80;;;21.47;64.11;94745.56;4984291;28;20828;-62
2023/06/28 00:17:15;;;;;;;8.70;7.47;;;21.00;99.90;;;21.44;64.39;94750.50;4984521;28;20454;-57
2023/06/28 00:19:47;;;;;;;9.63;7.23;;;21.00;99.90;;;21.43;64.30;94748.88;4983304;28;20600;-56
2023/06/28 00:22:15;;;;;;;8.87;6.60;;;20.90;99.90;;;21.40;64.42;94750.13;4984196;28;20455;-63
2023/06/28 00:24:43;;;;;;;12.20;6.80;;;20.90;99.90;;;21.36;64.47;94748.88;4984489;28;20541;-57
2023/06/28 00:27:11;;;;;;;9.13;6.97;;;20.90;99.90;;;21.37;64.83;94753.22;4984886;28;20467;-64
2023/06/28 00:29:38;;;;;;;6.63;6.00;;;20.90;99.90;;;21.34;64.77;94756.31;4984174;28;20557;-56
2023/06/28 00:32:06;;;;;;;10.70;6.60;;;20.90;99.90;;;21.33;64.91;94760.00;4981980;28;20454;-62
2023/06/28 00:34:33;;;;;;;7.70;7.00;;;20.80;99.90;;;21.30;64.91;94749.72;4989024;28;20490;-57
2023/06/28 00:37:00;;;;;;;8.97;6.40;;;20.80;99.90;;;21.29;64.88;94761.47;4988522;28;21032;-56
2023/06/28 00:39:27;;;;;;;6.60;6.07;;;20.80;99.90;;;21.26;65.03;94756.53;4989839;28;20548;-57
2023/06/28 00:41:56;;;;;;;12.30;7.20;;;20.80;99.90;;;21.24;65.10;94758.59;4988174;28;21464;-63
2023/06/28 00:44:24;;;;;;;7.17;6.57;;;20.80;99.90;;;21.21;64.99;94767.03;4988355;28;20482;-59
2023/06/28 00:46:51;;;;;;;10.30;7.10;;;20.80;99.90;;;21.19;65.14;94764.56;4988134;28;20964;-56
2023/06/28 00:49:18;;;;;;;11.10;7.40;;;20.70;99.90;;;21.17;65.06;94763.13;4988337;28;20525;-56
2023/06/28 00:51:45;;;;;;;9.00;8.10;;;20.70;99.90;;;21.14;65.05;94762.50;4987326;28;20473;-62
2023/06/28 00:54:13;;;;;;;9.77;8.93;;;20.70;99.90;;;21.11;64.94;94768.28;4988033;28;20486;-63
2023/06/28 00:56:40;;;;;;;10.83;9.00;;;20.60;99.90;;;21.08;64.86;94767.88;4988480;28;20841;-63
2023/06/28 00:59:08;;;;;;;9.87;8.80;;;20.60;99.90;;;21.06;65.01;94759.25;4988837;28;20605;-64
2023/06/28 01:01:37;;;;;;;9.80;8.80;;;20.60;99.90;;;21.02;64.91;94761.53;4987139;28;20501;-56
2023/06/28 01:04:05;;;;;;;8.60;7.70;;;20.60;99.90;;;20.99;64.75;94763.78;4987161;28;21632;-55
2023/06/28 01:06:35;;;;;;;9.90;7.97;;;20.60;99.90;;;20.97;64.98;94765.84;4987883;28;20462;-62
2023/06/28 01:09:03;;;;;;;17.57;8.83;;;20.50;99.90;;;20.93;65.28;94770.78;4987968;28;21069;-57
2023/06/28 01:11:31;;;;;;;14.50;8.03;;;20.50;99.90;;;20.91;65.14;94771.00;4984621;28;20505;-62
2023/06/28 01:13:58;;;;;;;9.07;8.20;;;20.50;99.90;;;20.87;65.18;94760.91;4988537;28;20549;-56
2023/06/28 01:16:27;;;;;;;8.40;7.60;;;20.40;99.90;;;20.84;65.28;94754.13;4988047;28;20467;-58
2023/06/28 01:18:54;;;;;;;10.97;9.47;;;20.40;99.90;;;20.82;65.32;94763.38;4986795;28;20943;-57
2023/06/28 01:21:23;;;;;;;8.60;7.90;;;20.40;99.90;;;20.80;65.00;94765.44;4986657;28;20997;-56
2023/06/28 01:23:51;;;;;;;13.00;8.63;;;20.40;99.90;;;20.76;65.35;94770.38;4987415;28;20863;-61
2023/06/28 01:26:19;;;;;;;18.53;7.93;;;20.30;99.90;;;20.74;65.06;94772.41;4987408;28;21319;-57
2023/06/28 01:28:46;;;;;;;9.70;7.93;;;20.30;99.90;;;20.71;65.43;94762.13;4987919;28;20457;-56
2023/06/28 01:31:13;;;;;;;11.50;7.80;;;20.30;99.90;;;20.68;65.33;94763.38;4987442;28;20490;-64
2023/06/28 01:33:42;;;;;;;9.40;8.60;;;20.20;99.90;;;20.67;65.45;94772.41;4987327;28;20458;-62
2023/06/28 01:36:10;;;;;;;11.40;8.13;;;20.20;99.90;;;20.64;65.53;94767.47;4985756;28;20473;-56
2023/06/28 01:38:37;;;;;;;9.67;8.83;;;20.20;99.90;;;20.63;65.40;94773.00;4987510;28;20502;-58
2023/06/28 01:41:06;;;;;;;8.70;7.90;;;20.20;99.90;;;20.61;65.34;94775.88;4986792;28;20482;-62
2023/06/28 01:43:33;;;;;;;12.03;9.40;;;20.20;99.90;;;20.58;65.40;94778.97;4986605;28;20765;-61
2023/06/28 01:46:00;;;;;;;9.00;8.10;;;20.20;99.90;;;20.56;65.43;94771.16;4987272;28;20490;-65
2023/06/28 01:48:28;;;;;;;9.17;8.20;;;20.10;99.90;;;20.54;65.36;94767.88;4986826;28;20458;-57
2023/06/28 01:50:55;;;;;;;9.37;8.57;;;20.10;99.90;;;20.51;65.26;94776.28;4986851;28;20491;-62
2023/06/28 01:53:22;;;;;;;9.60;8.70;;;20.10;99.90;;;20.49;65.32;94774.84;4986871;28;20890;-62
2023/06/28 01:55:50;;;;;;;9.63;8.10;;;20.00;99.90;;;20.46;65.50;94776.06;4987699;28;20493;-57
2023/06/28 01:58:18;;;;;;;12.13;8.27;;;20.00;99.90;;;20.44;65.51;94771.97;4985951;28;20463;-61
2023/06/28 02:00:45;;;;;;;9.03;8.10;;;20.00;99.90;;;20.41;65.51;94774.00;4986893;28;20482;-64
2023/06/28 02:03:13;;;;;;;9.60;8.80;;;20.00;99.90;;;20.39;65.33;94773.38;4986351;28;20462;-57
2023/06/28 02:05:40;;;;;;;10.07;9.00;;;20.00;99.90;;;20.38;65.54;94776.25;4986937;28;20541;-58
2023/06/28 02:08:07;;;;;;;13.57;9.30;;;19.90;99.90;;;20.36;65.41;94781.81;4983517;28;20547;-56
2023/06/28 02:10:35;;;;;;;11.87;10.67;;;19.90;99.90;;;20.35;65.91;94779.34;4986225;28;20504;-57
2023/06/28 02:13:02;;;;;;;10.10;9.10;;;19.90;99.90;;;20.34;65.64;94783.03;4985279;28;20472;-62
2023/06/28 02:15:31;;;;;;;16.07;9.43;;;19.90;99.90;;;20.33;65.87;94786.75;4987350;28;20610;-63
2023/06/28 02:17:58;;;;;;;14.03;10.60;;;19.90;99.90;;;20.34;65.70;94785.69;4986613;28;20462;-57
2023/06/28 02:20:25;;;;;;;12.63;9.60;;;19.80;99.90;;;20.33;66.05;94787.56;4986085;28;20527;-62
2023/06/28 02:22:53;;;;;;;10.53;9.43;;;19.90;99.90;;;20.33;66.31;94790.22;4985793;28;20462;-57
2023/06/28 02:25:20;;;;;;;11.90;10.10;;;19.90;99.90;;;20.32;66.57;94793.09;4985655;28;20533;-62
2023/06/28 02:27:47;;;;;;;12.80;10.33;;;19.90;99.90;;;20.30;66.37;94789.81;4986388;28;20458;-62
2023/06/28 02:30:15;;;;;;;10.93;9.70;;;19.80;99.90;;;20.30;66.87;94795.97;4986261;28;20482;-57
2023/06/28 02:32:43;;;;;;;14.40;10.30;;;19.90;99.90;;;20.29;66.86;94788.97;4982646;28;20532;-56
2023/06/28 02:35:10;;;;;;;12.90;10.07;;;19.80;99.90;;;20.30;67.05;94795.97;4986984;28;20697;-56
2023/06/28 02:37:38;;;;;;;11.17;10.07;;;19.80;99.90;;;20.31;67.06;94797.63;4985907;28;20521;-63
2023/06/28 02:40:09;;;;;;;10.30;9.20;;;19.80;99.90;;;20.34;67.10;94793.72;4986411;28;20962;-63
2023/06/28 02:42:36;;;;;;;12.27;9.77;;;19.80;99.90;;;20.36;67.35;94789.81;4983367;28;20483;-63
2023/06/28 02:45:04;;;;;;;13.50;9.20;;;19.90;99.90;;;20.37;67.08;94782.63;4985768;28;20486;-57
2023/06/28 02:47:31;;;;;;;13.60;9.67;;;19.90;99.90;;;20.39;67.41;94789.41;4987341;28;20896;-56
2023/06/28 02:50:04;;;;;;;9.90;8.73;;;19.90;99.90;;;20.39;67.26;94786.75;4986642;28;20889;-57
2023/06/28 02:52:31;;;;;;;13.23;8.80;;;19.90;99.90;;;20.41;67.38;94794.56;4985131;28;20466;-57
2023/06/28 02:54:58;;;;;;;11.87;9.57;;;20.00;99.90;;;20.40;67.46;94791.06;4986325;28;20543;-64
2023/06/28 02:57:25;;;;;;;13.80;9.33;;;20.00;99.90;;;20.42;67.38;94796.22;4986025;28;20533;-56
2023/06/28 02:59:52;;;;;;;11.10;10.00;;;20.00;99.90;;;20.42;67.22;94801.56;4985237;28;20494;-62
2023/06/28 03:02:20;;;;;;;10.70;9.27;;;20.00;99.90;;;20.44;67.61;94806.69;4985419;28;20463;-58
2023/06/28 03:04:47;;;;;;;16.97;10.47;;;20.00;99.90;;;20.42;67.63;94802.38;4985218;28;20950;-57
2023/06/28 03:07:16;;;;;;;11.87;10.67;;;20.00;99.90;;;20.46;67.50;94807.31;4984472;28;20455;-57
2023/06/28 03:09:43;;;;;;;18.30;11.70;;;20.00;99.90;;;20.48;67.61;94805.25;4986484;28;20470;-62
2023/06/28 03:12:11;;;;;;;11.83;10.60;;;20.00;99.90;;;20.50;67.00;94797.88;4985375;28;20466;-62
2023/06/28 03:14:39;;;;;;;11.67;10.47;;;20.00;99.90;;;20.53;67.51;94802.81;4983614;28;20483;-57
2023/06/28 03:17:07;;;;;;;11.27;10.13;;;20.00;99.90;;;20.55;67.67;94796.22;4985786;28;20462;-64
2023/06/28 03:19:35;;;;;;;19.30;11.20;;;20.10;99.90;;;20.58;67.54;94800.34;4981750;28;20494;-64
2023/06/28 03:22:02;;;;;;;14.20;10.77;;;20.10;99.90;;;20.62;67.59;94800.75;4984930;28;20470;-64
2023/06/28 03:24:31;;;;;;;14.47;10.77;;;20.10;99.90;;;20.63;67.42;94795.19;4984672;28;20521;-62
2023/06/28 03:26:58;;;;;;;12.03;10.83;;;20.20;99.90;;;20.65;67.08;94789.69;4985721;28;20898;-57
2023/06/28 03:29:26;;;;;;;12.20;10.97;;;20.20;99.90;;;20.66;67.12;94794.81;4985085;28;20561;-58
2023/06/28 03:31:55;;;;;;;17.47;11.20;;;20.20;99.90;;;20.68;67.35;94795.47;4984272;28;20560;-63
2023/06/28 03:34:22;;;;;;;12.60;11.30;;;20.20;99.90;;;20.70;67.22;94796.06;4985987;28;21014;-57
2023/06/28 03:36:49;;;;;;;13.40;12.00;;;20.20;99.90;;;20.72;67.05;94791.31;4985056;28;20512;-63
2023/06/28 03:39:18;;;;;;;12.90;11.60;;;20.20;99.90;;;20.75;67.22;94798.94;4986015;28;20498;-63
2023/06/28 03:41:46;;;;;;;14.90;11.70;;;20.30;99.90;;;20.78;67.18;94795.84;4985397;28;20458;-62
2023/06/28 03:44:14;;;;;;;12.60;11.30;;;20.30;99.90;;;20.81;67.02;94799.16;4985120;28;20544;-63
2023/06/28 03:46:41;;;;;;;14.03;12.40;;;20.40;99.90;;;20.84;67.17;94801.44;4985488;28;20601;-58
2023/06/28 03:49:08;;;;;;;16.80;13.50;;;20.30;99.90;;;20.86;66.95;94789.47;4981787;28;20891;-62
2023/06/28 03:51:36;;;;;;;15.97;12.53;;;20.40;99.90;;;20.89;67.01;94793.59;4985548;28;20813;-56
2023/06/28 03:54:03;;;;;;;13.07;11.83;;;20.40;99.90;;;20.92;67.04;94795.88;4986361;28;20512;-60
2023/06/28 03:56:31;;;;;;;13.60;12.20;;;20.40;99.90;;;20.94;66.80;94796.47;4986046;28;20447;-62
2023/06/28 03:58:59;;;;;;;13.83;12.47;;;20.50;99.90;;;20.97;66.93;94782.69;4984967;28;20463;-63
2023/06/28 04:01:26;;;;;;;18.13;13.07;;;20.50;99.90;;;21.02;66.84;94795.44;4984672;28;20548;-56
2023/06/28 04:03:54;;;;;;;16.00;13.17;;;20.60;99.90;;;21.04;66.62;94794.22;4984858;28;21465;-62
2023/06/28 04:06:21;;;;;;;20.00;12.70;;;20.50;99.90;;;21.07;66.57;94799.16;4988005;28;20463;-56
2023/06/28 04:08:48;;;;;;;17.57;14.77;;;20.60;99.90;;;21.10;66.33;94790.72;4989661;28;20450;-57
2023/06/28 04:11:16;;;;;;;13.87;12.40;;;20.60;99.90;;;21.16;66.68;94793.59;4989655;28;20485;-62
2023/06/28 04:13:43;;;;;;;13.93;12.30;;;20.70;99.90;;;21.21;66.66;94804.47;4989114;28;21104;-64
2023/06/28 04:16:12;;;;;;;15.90;13.37;;;20.70;99.90;;;21.26;66.67;94799.34;4988694;28;21029;-59
2023/06/28 04:18:39;;;;;;;14.17;12.77;;;20.70;99.90;;;21.28;66.67;94792.72;4989191;28;20963;-64
2023/06/28 04:21:06;;;;;;;21.97;13.97;;;20.80;99.90;;;21.32;66.51;94798.50;4988432;28;20490;-65
2023/06/28 04:23:34;;;;;;;19.63;14.67;;;20.80;99.90;;;21.36;66.14;94788.22;4989490;28;21018;-63
2023/06/28 04:26:02;;;;;;;20.93;13.80;;;20.90;99.90;;;21.39;66.32;94807.31;4988106;28;21019;-63
2023/06/28 04:28:30;;;;;;;17.43;13.43;;;20.90;99.90;;;21.43;66.33;94799.72;4993234;28;20462;-74
2023/06/28 04:30:57;;;;;;;13.93;12.43;;;20.90;99.90;;;21.48;66.32;94807.94;4989854;28;20522;-74
2023/06/28 04:33:29;;;;;;;15.27;13.77;;;21.00;99.90;;;21.55;65.98;94810.63;4988692;28;20529;-73
2023/06/28 04:36:01;;;;;;;14.40;12.43;;;21.10;99.90;;;21.59;66.01;94807.31;4988518;28;20481;-59
2023/06/28 04:38:32;;;;;;;15.83;13.20;;;21.10;99.90;;;21.62;65.90;94809.56;4986182;28;20450;-58
2023/06/28 04:40:59;;;;;;;14.73;13.30;;;21.10;99.90;;;21.67;65.95;94808.94;4990675;28;20506;-71
2023/06/28 04:43:27;;;;;;;12.93;11.60;;;21.10;99.90;;;21.75;66.35;94810.56;4990325;28;20461;-71
2023/06/28 04:45:55;;;;;;;23.00;12.67;;;21.20;99.90;;;21.84;66.26;94815.50;4992145;28;20482;-59
2023/06/28 04:48:22;;;;;;;20.30;13.33;;;21.30;99.90;;;21.90;66.35;94813.81;4987925;28;20494;-59
2023/06/28 04:50:52;;;;;;;15.30;12.90;;;21.40;99.90;;;21.95;66.07;94818.53;4988821;28;20470;-57
2023/06/28 04:53:19;;;;;;;14.53;12.93;;;21.40;99.90;;;21.98;65.87;94815.44;4987104;28;20463;-74
2023/06/28 04:55:47;;;;;;;15.67;14.07;;;21.50;99.90;;;22.04;66.15;94822.63;4989250;28;20462;-71
2023/06/28 04:58:15;;;;;;;16.57;14.83;;;21.50;99.90;;;22.09;66.22;94833.53;4991313;28;20494;-73
2023/06/28 05:00:42;;;;;;;16.37;14.13;;;21.60;99.90;;;22.13;65.99;94818.66;4986328;28;20506;-73
2023/06/28 05:03:14;;;;;;;23.00;14.03;;;21.60;99.90;;;22.21;65.79;94825.63;4987587;28;21262;-71
2023/06/28 05:05:42;;;;;;;20.90;13.47;;;21.70;99.90;;;22.26;66.08;94822.31;4989489;28;21079;-74
2023/06/28 05:08:11;;;;;;;20.93;14.80;;;21.70;99.90;;;22.32;65.93;94829.53;4988031;28;21038;-74
2023/06/28 05:10:38;;;;;;;21.20;14.30;;;21.80;99.90;;;22.36;66.02;94823.53;4987450;28;20599;-58
2023/06/28 05:13:05;;;;;;;21.53;13.43;;;21.80;99.90;;;22.40;65.50;94818.56;4990065;28;20455;-58
2023/06/28 05:15:34;;;;;;;28.13;14.53;;;21.90;99.90;;;22.46;65.85;94823.06;4986697;28;20481;-74
2023/06/28 05:18:02;;;;;;;31.93;15.70;;;21.90;99.90;;;22.52;65.67;94826.75;4988140;28;20901;-59
2023/06/28 05:20:29;;;;;;;22.30;15.70;;;22.00;99.90;;;22.57;65.59;94818.88;4988502;28;20881;-73
2023/06/28 05:23:11;;;;;;;19.27;15.10;;;22.00;99.90;;;22.64;65.08;94816.16;4990602;28;20529;-73
2023/06/28 05:25:39;;;;;;;28.17;14.57;;;22.10;99.90;;;22.74;65.46;94813.81;4988818;28;20482;-56
2023/06/28 05:28:07;;;;;;;23.20;14.60;;;22.20;99.90;;;22.85;64.82;94814.97;4989501;28;20549;-74
2023/06/28 05:30:34;;;;;;;17.23;15.03;;;22.30;99.90;;;22.97;64.58;94812.41;4988727;28;20466;-59
2023/06/28 05:33:02;;;;;;;19.20;14.77;;;22.40;99.90;;;23.08;64.72;94815.25;4993482;28;20459;-58
2023/06/28 05:35:30;;;;;;;26.13;15.20;;;22.50;99.90;;;23.20;63.98;94820.72;4986574;28;20466;-74
2023/06/28 05:37:57;;;;;;;30.77;16.10;;;22.60;99.90;;;23.34;63.99;94817.91;4989077;28;20450;-73
2023/06/28 05:40:27;;;;;;;20.07;16.90;;;22.70;99.90;;;23.46;63.71;94818.84;4988869;28;20498;-73
2023/06/28 05:42:55;;;;;;;17.37;15.00;;;22.90;99.90;;;23.61;63.07;94818.50;4985399;28;20450;-75
2023/06/28 05:45:22;;;;;;;14.80;13.30;;;23.00;99.90;;;23.74;63.56;94817.53;4988621;28;20736;-58
2023/06/28 05:47:50;;;;;;;18.13;15.70;;;23.10;99.90;;;23.87;63.23;94811.19;4987812;28;20458;-74
2023/06/28 05:50:17;;;;;;;23.27;15.30;;;23.30;99.90;;;23.98;62.52;94818.50;4988613;28;20481;-57
2023/06/28 05:52:45;;;;;;;17.77;15.93;;;23.40;99.90;;;24.07;61.93;94825.22;4987977;28;20454;-73
2023/06/28 05:55:12;;;;;;;19.70;15.30;;;23.50;99.90;;;24.16;62.02;94831.13;4988405;28;20517;-58
2023/06/28 05:57:41;;;;;;;22.83;14.77;;;23.60;99.90;;;24.25;61.39;94829.75;4987950;28;20450;-59
2023/06/28 06:00:10;;;;;;;17.80;15.20;;;23.60;99.90;;;24.31;60.16;94828.84;4988124;28;20498;-74
2023/06/28 06:02:37;;;;;;;20.50;15.13;;;23.70;99.90;;;24.39;60.62;94830.41;4987234;28;20973;-58
2023/06/28 06:05:05;;;;;;;16.10;14.03;;;23.80;99.90;;;24.49;60.29;94829.84;4989280;28;20577;-73
2023/06/28 06:07:34;;;;;;;17.17;13.03;;;23.90;99.90;;;24.57;59.58;94824.22;4988881;28;20819;-59
2023/06/28 06:10:01;;;;;;;15.60;13.60;;;23.90;99.90;;;24.66;59.67;94822.00;4987947;28;20552;-56
2023/06/28 06:12:29;;;;;;;17.97;14.23;;;24.00;99.90;;;24.76;59.02;94824.16;4988494;28;20454;-58
2023/06/28 06:14:59;;;;;;;13.47;12.10;;;24.10;99.90;;;24.87;59.20;94831.44;4990747;28;20470;-74
2023/06/28 06:17:26;;;;;;;18.00;12.17;;;24.20;99.90;;;24.99;58.24;94829.59;4996205;28;20454;-59
2023/06/28 06:19:54;;;;;;;17.73;13.43;;;24.30;99.80;;;25.06;57.78;94830.28;4989879;28;20572;-73
2023/06/28 06:22:21;;;;;;;19.37;13.90;;;24.40;99.20;;;25.15;57.96;94827.28;4988829;28;20461;-59
2023/06/28 06:24:48;;;;;;;16.93;12.27;;;24.50;99.30;;;25.26;57.87;94831.03;4995012;28;20540;-58
2023/06/28 06:27:16;;;;;;;15.10;12.70;;;24.60;99.40;;;25.36;58.08;94818.66;4986641;28;20544;-58
2023/06/28 06:29:43;;;;;;;18.93;12.40;;;24.70;99.10;;;25.47;57.29;94817.03;4987744;28;20478;-58
2023/06/28 06:32:12;;;;;;;13.30;11.90;;;24.80;98.70;;;25.57;57.37;94821.81;4986561;28;20462;-75
2023/06/28 06:34:40;;;;;;;12.53;10.63;;;24.90;98.70;;;25.68;56.20;94817.47;4987940;28;20985;-73
2023/06/28 06:37:11;;;;;;;17.00;11.63;;;25.00;98.10;;;25.78;56.65;94817.72;4987591;28;20454;-75
2023/06/28 06:39:40;;;;;;;16.30;11.87;;;25.10;98.20;;;25.90;56.23;94813.13;4987915;28;20465;-58
2023/06/28 06:42:07;;;;;;;19.03;12.17;;;25.20;98.00;;;26.03;56.23;94816.66;4987486;28;20458;-74
2023/06/28 06:44:35;;;;;;;12.87;11.57;;;25.40;98.00;;;26.14;55.65;94810.41;4987954;28;20473;-74
2023/06/28 06:47:03;;;;;;;15.33;10.70;;;25.50;97.70;;;26.24;55.41;94817.88;4987241;28;20446;-75
2023/06/28 06:49:32;;;;;;;15.60;11.23;;;25.60;97.40;;;26.33;54.92;94810.22;4987686;28;21014;-59
2023/06/28 06:51:59;;;;;;;13.70;12.27;;;25.60;96.60;;;26.40;54.89;94817.13;4987299;28;20454;-74
2023/06/28 06:54:29;;;;;;;12.33;11.07;;;25.70;96.50;;;26.46;54.92;94821.56;4986113;28;21032;-74
2023/06/28 06:56:56;;;;;;;11.20;10.10;;;25.80;96.50;;;26.55;54.13;94823.84;4986664;28;20545;-58
2023/06/28 06:59:24;;;;;;;15.20;11.57;;;25.90;96.10;;;26.57;54.10;94827.97;4987125;28;20479;-57
2023/06/28 07:01:51;;;;;;;21.87;11.37;;;25.90;96.00;;;26.60;54.01;94827.47;4986545;28;20588;-57
2023/06/28 07:04:18;;;;;;;17.37;11.93;;;25.90;95.80;;;26.58;54.08;94823.38;4987408;28;21032;-74
2023/06/28 07:06:47;;;;;;;17.90;11.50;;;26.00;95.80;;;26.56;54.04;94823.59;4987620;28;20493;-58
2023/06/28 07:09:15;;;;;;;13.23;11.00;;;25.90;95.70;;;26.61;54.20;94821.00;4985727;28;20474;-75
2023/06/28 07:11:42;;;;;;;14.87;10.20;;;25.90;95.50;;;26.71;54.14;94822.28;4987464;28;20461;-59
2023/06/28 07:14:09;;;;;;;16.17;10.90;;;26.10;95.70;;;26.86;53.67;94817.16;4987046;28;20564;-75
2023/06/28 07:16:37;;;;;;;14.23;10.43;;;26.10;95.50;;;26.95;53.41;94817.59;4987040;28;20454;-74
2023/06/28 07:19:05;;;;;;;15.40;9.17;;;26.30;94.90;;;27.03;52.82;94822.56;4987468;28;20533;-74
2023/06/28 07:21:33;;;;;;;24.60;10.57;;;26.30;94.60;;;27.10;53.00;94811.63;4986472;28;20536;-75
2023/06/28 07:24:01;;;;;;;26.47;10.97;;;26.40;94.40;;;27.18;52.73;94812.03;4990190;28;20454;-73
2023/06/28 07:26:29;;;;;;;11.10;9.23;;;26.50;94.20;;;27.22;52.58;94817.78;4991886;28;20469;-58
2023/06/28 07:28:57;;;;;;;16.43;9.70;;;26.50;94.00;;;27.25;52.19;94822.69;4987697;28;20478;-74
2023/06/28 07:31:24;;;;;;;10.17;9.17;;;26.60;93.70;;;27.26;51.22;94823.50;4985849;28;20548;-75
2023/06/28 07:33:51;;;;;;;9.87;8.97;;;26.60;92.80;;;27.19;50.42;94816.38;4986389;28;20450;-59
2023/06/28 07:36:18;;;;;;;12.03;9.10;;;26.60;92.20;;;27.16;51.11;94822.25;4986502;28;20516;-75
2023/06/28 07:38:46;;;;;;;10.50;8.80;;;26.50;92.20;;;27.16;51.38;94818.75;4987215;28;20457;-75
2023/06/28 07:41:15;;;;;;;9.63;8.67;;;26.60;92.20;;;27.18;50.58;94814.72;4983552;28;20502;-58
2023/06/28 07:43:43;;;;;;;8.70;7.80;;;26.60;91.90;;;27.15;49.35;94823.31;4991590;28;20461;-74
2023/06/28 07:46:10;;;;;;;13.90;8.30;;;26.50;90.70;;;27.08;50.32;94819.13;4991486;28;20481;-74
2023/06/28 07:48:38;;;;;;;15.33;9.00;;;26.50;91.10;;;27.00;50.23;94823.06;4990484;28;20453;-60
2023/06/28 07:51:05;;;;;;;9.97;7.93;;;26.50;91.10;;;26.95;50.74;94825.69;4991344;28;20481;-58
2023/06/28 07:53:33;;;;;;;9.83;7.80;;;26.40;91.40;;;27.00;51.13;94823.06;4992639;28;20454;-76
2023/06/28 07:56:00;;;;;;;14.80;8.30;;;26.40;91.40;;;27.07;50.59;94828.31;4992817;28;20496;-75
2023/06/28 07:58:29;;;;;;;12.33;8.67;;;26.50;91.20;;;27.16;50.78;94824.97;4993226;28;20489;-75
2023/06/28 08:00:56;;;;;;;10.00;8.07;;;26.50;91.10;;;27.28;50.08;94826.75;4991653;28;20516;-76
2023/06/28 08:03:23;;;;;;;13.17;7.43;;;26.60;91.20;;;27.41;49.84;94826.47;4990366;28;20454;-73
2023/06/28 08:05:51;;;;;;;14.37;7.00;;;26.70;91.10;;;27.55;49.41;94826.94;4991128;28;20474;-74
2023/06/28 08:08:18;;;;;;;10.83;7.67;;;26.80;90.20;;;27.58;49.41;94826.44;4990957;28;20461;-76
2023/06/28 08:10:46;;;;;;;13.80;8.47;;;27.00;90.10;;;27.58;49.05;94826.44;4991538;28;20532;-76
2023/06/28 08:13:13;;;;;;;16.43;7.90;;;27.00;89.30;;;27.58;48.49;94829.16;4991683;28;20529;-76
2023/06/28 08:15:42;;;;;;;9.37;7.60;;;27.00;88.30;;;27.59;48.63;94824.56;4990287;28;20851;-60
2023/06/28 08:18:10;;;;;;;11.00;7.97;;;27.00;88.50;;;27.63;48.83;94828.41;4990929;28;20466;-76
2023/06/28 08:20:37;;;;;;;9.87;8.33;;;27.00;88.30;;;27.67;48.16;94821.44;4996268;28;20497;-59
2023/06/28 08:23:04;;;;;;;10.47;7.83;;;27.00;87.20;;;27.72;47.07;94810.72;4990145;28;20450;-60
2023/06/28 08:25:32;;;;;;;16.20;8.00;;;27.10;84.70;;;27.68;47.78;94813.06;4992797;28;21230;-61
2023/06/28 08:27:59;;;;;;;10.20;9.03;;;27.10;85.30;;;27.66;47.67;94809.81;4990873;28;20449;-77
2023/06/28 08:30:26;;;;;;;11.03;8.03;;;27.10;85.70;;;27.69;46.90;94803.09;4991332;28;20520;-62
2023/06/28 08:32:55;;;;;;;11.00;8.93;;;27.10;84.60;;;27.70;47.13;94802.00;4989456;28;20462;-77
2023/06/28 08:35:23;;;;;;;14.20;7.90;;;27.10;84.30;;;27.73;46.48;94798.81;4990403;28;20480;-75
2023/06/28 08:37:50;;;;;;;11.80;7.70;;;27.20;83.50;;;27.82;47.04;94800.00;4986642;28;20445;-58
2023/06/28 08:40:17;;;;;;;9.27;7.67;;;27.20;83.60;;;27.93;46.63;94795.56;4993320;28;20482;-58
2023/06/28 08:42:44;;;;;;;8.27;7.50;;;27.30;83.00;;;28.09;46.22;94796.63;4991356;28;20449;-75
2023/06/28 08:45:13;;;;;;;7.63;6.80;;;27.40;83.10;;;28.26;46.49;94793.84;4989381;28;20493;-74
2023/06/28 08:47:41;;;;;;;11.67;7.73;;;27.60;83.00;;;28.41;45.87;94798.59;4990295;28;20462;-59
2023/06/28 08:50:11;;;;;;;11.27;7.63;;;27.70;80.70;;;28.53;45.66;94790.34;4989555;28;20261;-58
2023/06/28 08:52:39;;;;;;;13.83;7.47;;;27.90;80.90;;;28.64;45.77;94794.00;4988261;28;20948;-59
2023/06/28 08:55:07;;;;;;;8.57;7.40;;;28.00;81.00;;;28.74;44.64;94792.22;4988070;28;20795;-59
2023/06/28 08:57:35;;;;;;;31.93;8.37;;;28.10;79.50;;;28.85;45.02;94782.31;4988750;28;20472;-59
2023/06/28 09:00:05;;;;;;;8.10;7.23;;;28.20;79.90;;;29.01;44.96;94787.84;4989024;28;20485;-72
2023/06/28 09:02:33;;;;;;;18.93;7.63;;;28.30;80.00;;;29.16;44.53;94788.00;4988295;28;20222;-59
2023/06/28 09:05:00;;;;;;;10.07;8.30;;;28.50;78.40;;;29.27;43.30;94780.78;4989547;28;20515;-75
2023/06/28 09:07:29;;;;;;;11.43;8.23;;;28.60;76.50;;;29.36;43.82;94781.09;4989514;28;20679;-75
2023/06/28 09:09:56;;;;;;;9.60;8.20;;;28.70;77.30;;;29.49;44.31;94788.78;4987047;28;20953;-76
2023/06/28 09:12:24;;;;;;;11.53;8.00;;;28.80;77.20;;;29.59;43.67;94777.19;4989054;28;20226;-77
2023/06/28 09:14:51;;;;;;;13.90;8.27;;;28.90;76.00;;;29.62;42.78;94777.50;4989182;28;20251;-71
2023/06/28 09:17:19;;;;;;;7.77;7.07;;;29.00;75.20;;;29.64;42.87;94769.91;4988372;28;20545;-59
2023/06/28 09:19:46;;;;;;;10.07;7.47;;;29.00;75.20;;;29.65;43.27;94765.28;4987790;28;20298;-61
2023/06/28 09:22:14;;;;;;;9.30;8.40;;;29.00;74.70;;;29.61;43.45;94754.19;4989645;28;20234;-74
2023/06/28 09:24:42;;;;;;;8.57;7.70;;;29.00;76.10;;;29.60;43.86;94751.72;4993055;28;20640;-72
2023/06/28 09:27:12;;;;;;;17.53;8.23;;;29.00;75.20;;;29.58;43.49;94752.00;4989320;28;20265;-74
2023/06/28 09:29:39;;;;;;;9.40;7.53;;;29.00;75.20;;;29.62;43.43;94755.81;4988839;28;20729;-60
2023/06/28 09:32:08;;;;;;;12.93;8.00;;;29.00;75.20;;;29.66;43.14;94759.63;4985360;28;20195;-73
2023/06/28 09:34:37;;;;;;;13.63;8.90;;;29.00;74.30;;;29.73;42.76;94763.97;4986469;28;20245;-72
2023/06/28 09:37:05;;;;;;;10.47;7.67;;;29.10;73.90;;;29.79;42.92;94765.66;4992043;28;20206;-70
2023/06/28 09:39:36;;;;;;;10.93;8.80;;;29.10;74.70;;;29.82;43.10;94765.16;4985283;28;20229;-74
2023/06/28 09:42:06;;;;;;;16.90;8.23;;;29.20;73.40;;;29.85;42.68;94765.47;4987176;28;20227;-59
2023/06/28 09:44:34;;;;;;;10.40;8.90;;;29.20;73.10;;;29.92;42.74;94772.53;4988013;28;20292;-72
2023/06/28 09:47:02;;;;;;;13.83;8.60;;;29.20;72.70;;;29.98;42.82;94763.34;4986690;28;20198;-59
2023/06/28 09:49:29;;;;;;;10.10;9.10;;;29.30;72.10;;;30.03;42.83;94756.03;4988585;28;20317;-58
2023/06/28 09:51:59;;;;;;;18.63;9.40;;;29.40;72.10;;;30.11;42.40;94762.84;4986690;28;20641;-67
2023/06/28 09:54:31;;;;;;;10.70;8.77;;;29.50;72.00;;;30.19;42.83;94753.38;4986869;28;20765;-73
2023/06/28 09:56:59;;;;;;;22.77;8.17;;;29.50;72.20;;;30.27;42.16;94752.88;4986493;28;20225;-71
2023/06/28 09:59:32;;;;;;;9.77;7.97;;;29.60;71.30;;;30.31;42.28;94751.25;4985028;28;20222;-58
2023/06/28 10:02:00;;;;;;;13.57;7.70;;;29.60;71.50;;;30.35;42.68;94754.22;4986095;28;20281;-59
2023/06/28 10:04:29;;;;;;;9.80;8.20;;;29.70;71.50;;;30.41;42.12;94747.75;4986389;28;20679;-58
2023/06/28 10:07:00;;;;;;;8.85;8.05;;;29.80;71.00;;;30.49;42.50;94757.28;4990265;28;20218;-58
2023/06/28 10:09:30;;;;;;;10.02;9.10;;;29.80;70.90;;;30.53;42.19;94753.75;4986486;28;20313;-59
2023/06/28 10:11:59;;;;;;;76.67;11.07;;;29.90;70.60;;;30.55;41.52;94761.63;4987307;28;20225;-58
2023/06/28 10:14:30;;;;;;;12.10;9.73;;;29.90;69.70;;;30.51;41.12;94752.41;4986436;28;20234;-61